<?xml version="1.0" encoding="UTF-8" standalone="no" ?>
<gpx xmlns="http://www.topografix.com/GPX/1/1" xmlns:xsi="http://www.w3.org/2001/XMLSchema-instance" xsi:schemaLocation="http://www.topografix.com/GPX/1/1 http://www.topografix.com/GPX/1/1/gpx.xsd" version="1.1" creator="VisuGPX - https://www.visugpx.com">
  <metadata>
    <name>Ligne_Autour_11-22km</name>
    <desc><![CDATA[gnerando idor:6837548_6837567_8321596_12827438_13194341_]]></desc>
  </metadata>
  <trk>
    <name><![CDATA[Ligne_Boucle12km_18274217-18308281]]></name>
    <extensions>
      <line xmlns="http://www.topografix.com/GPX/gpx_style/0/2">
        <color>FF0000</color>
        <width>4</width>
      </line>
    </extensions>
    <trkseg>
      <trkpt lat="47.4104" lon="-1.37466">
        <ele>38</ele>
        <time>2024-12-22T14:38:18Z</time>
      </trkpt>
      <trkpt lat="47.41039" lon="-1.37445">
        <ele>38</ele>
        <time>2024-12-22T14:38:37Z</time>
      </trkpt>
      <trkpt lat="47.41028" lon="-1.37423">
        <ele>38</ele>
        <time>2024-12-22T14:39:02Z</time>
      </trkpt>
      <trkpt lat="47.40941" lon="-1.3728">
        <ele>40</ele>
        <time>2024-12-22T14:41:55Z</time>
      </trkpt>
      <trkpt lat="47.40907" lon="-1.3721">
        <ele>42</ele>
        <time>2024-12-22T14:43:13Z</time>
      </trkpt>
      <trkpt lat="47.40863" lon="-1.36995">
        <ele>42</ele>
        <time>2024-12-22T14:46:36Z</time>
      </trkpt>
      <trkpt lat="47.40861" lon="-1.36957">
        <ele>42</ele>
        <time>2024-12-22T14:47:10Z</time>
      </trkpt>
      <trkpt lat="47.4087" lon="-1.36795">
        <ele>42</ele>
        <time>2024-12-22T14:49:37Z</time>
      </trkpt>
      <trkpt lat="47.40861" lon="-1.36771">
        <ele>42</ele>
        <time>2024-12-22T14:50:02Z</time>
      </trkpt>
      <trkpt lat="47.40853" lon="-1.36768">
        <ele>42</ele>
        <time>2024-12-22T14:50:13Z</time>
      </trkpt>
      <trkpt lat="47.40844" lon="-1.36771">
        <ele>41</ele>
        <time>2024-12-22T14:50:25Z</time>
      </trkpt>
      <trkpt lat="47.40838" lon="-1.36761">
        <ele>41</ele>
        <time>2024-12-22T14:50:37Z</time>
      </trkpt>
      <trkpt lat="47.4084" lon="-1.3675">
        <ele>41</ele>
        <time>2024-12-22T14:50:48Z</time>
      </trkpt>
      <trkpt lat="47.41338" lon="-1.35776">
        <ele>41</ele>
        <time>2024-12-22T15:09:10Z</time>
      </trkpt>
      <trkpt lat="47.41427" lon="-1.35595">
        <ele>40</ele>
        <time>2024-12-22T15:12:32Z</time>
      </trkpt>
      <trkpt lat="47.41512" lon="-1.35461">
        <ele>39</ele>
        <time>2024-12-22T15:15:18Z</time>
      </trkpt>
      <trkpt lat="47.41567" lon="-1.35388">
        <ele>40</ele>
        <time>2024-12-22T15:16:57Z</time>
      </trkpt>
      <trkpt lat="47.4163" lon="-1.35324">
        <ele>39</ele>
        <time>2024-12-22T15:18:39Z</time>
      </trkpt>
      <trkpt lat="47.41658" lon="-1.35303">
        <ele>39</ele>
        <time>2024-12-22T15:19:21Z</time>
      </trkpt>
      <trkpt lat="47.41868" lon="-1.35113">
        <ele>35</ele>
        <time>2024-12-22T15:24:49Z</time>
      </trkpt>
      <trkpt lat="47.41876" lon="-1.351">
        <ele>36</ele>
        <time>2024-12-22T15:25:05Z</time>
      </trkpt>
      <trkpt lat="47.41877" lon="-1.35084">
        <ele>36</ele>
        <time>2024-12-22T15:25:20Z</time>
      </trkpt>
      <trkpt lat="47.41837" lon="-1.34975">
        <ele>35</ele>
        <time>2024-12-22T15:27:12Z</time>
      </trkpt>
      <trkpt lat="47.41604" lon="-1.34416">
        <ele>35</ele>
        <time>2024-12-22T15:37:04Z</time>
      </trkpt>
      <trkpt lat="47.41603" lon="-1.34403">
        <ele>35</ele>
        <time>2024-12-22T15:37:16Z</time>
      </trkpt>
      <trkpt lat="47.41611" lon="-1.34377">
        <ele>34</ele>
        <time>2024-12-22T15:37:42Z</time>
      </trkpt>
      <trkpt lat="47.41677" lon="-1.34219">
        <ele>32</ele>
        <time>2024-12-22T15:40:30Z</time>
      </trkpt>
      <trkpt lat="47.4168" lon="-1.34204">
        <ele>32</ele>
        <time>2024-12-22T15:40:44Z</time>
      </trkpt>
      <trkpt lat="47.41669" lon="-1.3418">
        <ele>32</ele>
        <time>2024-12-22T15:41:10Z</time>
      </trkpt>
      <trkpt lat="47.41403" lon="-1.3395">
        <ele>33</ele>
        <time>2024-12-22T15:48:01Z</time>
      </trkpt>
      <trkpt lat="47.4132" lon="-1.33895">
        <ele>35</ele>
        <time>2024-12-22T15:50:03Z</time>
      </trkpt>
      <trkpt lat="47.41298" lon="-1.33884">
        <ele>36</ele>
        <time>2024-12-22T15:50:34Z</time>
      </trkpt>
      <trkpt lat="47.41222" lon="-1.33878">
        <ele>39</ele>
        <time>2024-12-22T15:52:15Z</time>
      </trkpt>
      <trkpt lat="47.41085" lon="-1.33857">
        <ele>41</ele>
        <time>2024-12-22T15:55:19Z</time>
      </trkpt>
      <trkpt lat="47.41077" lon="-1.33811">
        <ele>41</ele>
        <time>2024-12-22T15:56:02Z</time>
      </trkpt>
      <trkpt lat="47.41074" lon="-1.33684">
        <ele>40</ele>
        <time>2024-12-22T15:57:57Z</time>
      </trkpt>
      <trkpt lat="47.41068" lon="-1.33615">
        <ele>40</ele>
        <time>2024-12-22T15:58:59Z</time>
      </trkpt>
      <trkpt lat="47.40997" lon="-1.3315">
        <ele>39</ele>
        <time>2024-12-22T16:06:10Z</time>
      </trkpt>
      <trkpt lat="47.41025" lon="-1.32807">
        <ele>38</ele>
        <time>2024-12-22T16:11:22Z</time>
      </trkpt>
      <trkpt lat="47.41008" lon="-1.32568">
        <ele>37</ele>
        <time>2024-12-22T16:14:59Z</time>
      </trkpt>
      <trkpt lat="47.41005" lon="-1.32551">
        <ele>37</ele>
        <time>2024-12-22T16:15:15Z</time>
      </trkpt>
      <trkpt lat="47.40997" lon="-1.3254">
        <ele>36</ele>
        <time>2024-12-22T16:15:29Z</time>
      </trkpt>
      <trkpt lat="47.40986" lon="-1.32539">
        <ele>36</ele>
        <time>2024-12-22T16:15:44Z</time>
      </trkpt>
      <trkpt lat="47.40937" lon="-1.32552">
        <ele>36</ele>
        <time>2024-12-22T16:16:51Z</time>
      </trkpt>
      <trkpt lat="47.40784" lon="-1.32609">
        <ele>31</ele>
        <time>2024-12-22T16:20:21Z</time>
      </trkpt>
      <trkpt lat="47.40733" lon="-1.32623">
        <ele>29</ele>
        <time>2024-12-22T16:21:30Z</time>
      </trkpt>
      <trkpt lat="47.40722" lon="-1.32629">
        <ele>29</ele>
        <time>2024-12-22T16:21:46Z</time>
      </trkpt>
      <trkpt lat="47.40717" lon="-1.32643">
        <ele>28</ele>
        <time>2024-12-22T16:22:00Z</time>
      </trkpt>
      <trkpt lat="47.40713" lon="-1.32692">
        <ele>29</ele>
        <time>2024-12-22T16:22:45Z</time>
      </trkpt>
      <trkpt lat="47.40714" lon="-1.32832">
        <ele>30</ele>
        <time>2024-12-22T16:24:51Z</time>
      </trkpt>
      <trkpt lat="47.40757" lon="-1.3366">
        <ele>33</ele>
        <time>2024-12-22T16:37:21Z</time>
      </trkpt>
      <trkpt lat="47.40754" lon="-1.33695">
        <ele>32</ele>
        <time>2024-12-22T16:37:53Z</time>
      </trkpt>
      <trkpt lat="47.40745" lon="-1.33702">
        <ele>32</ele>
        <time>2024-12-22T16:38:07Z</time>
      </trkpt>
      <trkpt lat="47.40722" lon="-1.33706">
        <ele>31</ele>
        <time>2024-12-22T16:38:38Z</time>
      </trkpt>
      <trkpt lat="47.40595" lon="-1.33703">
        <ele>26</ele>
        <time>2024-12-22T16:41:27Z</time>
      </trkpt>
      <trkpt lat="47.40528" lon="-1.33696">
        <ele>25</ele>
        <time>2024-12-22T16:42:57Z</time>
      </trkpt>
      <trkpt lat="47.40452" lon="-1.33683">
        <ele>27</ele>
        <time>2024-12-22T16:44:39Z</time>
      </trkpt>
      <trkpt lat="47.40223" lon="-1.33632">
        <ele>40</ele>
        <time>2024-12-22T16:49:48Z</time>
      </trkpt>
      <trkpt lat="47.40178" lon="-1.33627">
        <ele>43</ele>
        <time>2024-12-22T16:50:48Z</time>
      </trkpt>
      <trkpt lat="47.40167" lon="-1.33631">
        <ele>43</ele>
        <time>2024-12-22T16:51:03Z</time>
      </trkpt>
      <trkpt lat="47.40152" lon="-1.3365">
        <ele>44</ele>
        <time>2024-12-22T16:51:30Z</time>
      </trkpt>
      <trkpt lat="47.40082" lon="-1.3379">
        <ele>45</ele>
        <time>2024-12-22T16:54:07Z</time>
      </trkpt>
      <trkpt lat="47.40071" lon="-1.33822">
        <ele>44</ele>
        <time>2024-12-22T16:54:39Z</time>
      </trkpt>
      <trkpt lat="47.40068" lon="-1.33857">
        <ele>44</ele>
        <time>2024-12-22T16:55:11Z</time>
      </trkpt>
      <trkpt lat="47.40074" lon="-1.33928">
        <ele>43</ele>
        <time>2024-12-22T16:56:16Z</time>
      </trkpt>
      <trkpt lat="47.40089" lon="-1.34013">
        <ele>41</ele>
        <time>2024-12-22T16:57:35Z</time>
      </trkpt>
      <trkpt lat="47.40119" lon="-1.34093">
        <ele>35</ele>
        <time>2024-12-22T16:58:58Z</time>
      </trkpt>
      <trkpt lat="47.40177" lon="-1.34217">
        <ele>30</ele>
        <time>2024-12-22T17:01:14Z</time>
      </trkpt>
      <trkpt lat="47.40219" lon="-1.3435">
        <ele>29</ele>
        <time>2024-12-22T17:03:26Z</time>
      </trkpt>
      <trkpt lat="47.40217" lon="-1.34365">
        <ele>29</ele>
        <time>2024-12-22T17:03:40Z</time>
      </trkpt>
      <trkpt lat="47.4015" lon="-1.3442">
        <ele>30</ele>
        <time>2024-12-22T17:05:23Z</time>
      </trkpt>
      <trkpt lat="47.40141" lon="-1.34448">
        <ele>31</ele>
        <time>2024-12-22T17:05:50Z</time>
      </trkpt>
      <trkpt lat="47.40155" lon="-1.34527">
        <ele>31</ele>
        <time>2024-12-22T17:07:04Z</time>
      </trkpt>
      <trkpt lat="47.40159" lon="-1.3461">
        <ele>32</ele>
        <time>2024-12-22T17:08:19Z</time>
      </trkpt>
      <trkpt lat="47.40177" lon="-1.34758">
        <ele>34</ele>
        <time>2024-12-22T17:10:35Z</time>
      </trkpt>
      <trkpt lat="47.40197" lon="-1.34851">
        <ele>34</ele>
        <time>2024-12-22T17:12:03Z</time>
      </trkpt>
      <trkpt lat="47.40252" lon="-1.35166">
        <ele>34</ele>
        <time>2024-12-22T17:16:57Z</time>
      </trkpt>
      <trkpt lat="47.40258" lon="-1.35179">
        <ele>34</ele>
        <time>2024-12-22T17:17:11Z</time>
      </trkpt>
      <trkpt lat="47.40269" lon="-1.3518">
        <ele>34</ele>
        <time>2024-12-22T17:17:26Z</time>
      </trkpt>
      <trkpt lat="47.40297" lon="-1.35167">
        <ele>33</ele>
        <time>2024-12-22T17:18:05Z</time>
      </trkpt>
      <trkpt lat="47.40552" lon="-1.34997">
        <ele>35</ele>
        <time>2024-12-22T17:24:19Z</time>
      </trkpt>
      <trkpt lat="47.40563" lon="-1.34994">
        <ele>34</ele>
        <time>2024-12-22T17:24:34Z</time>
      </trkpt>
      <trkpt lat="47.40573" lon="-1.35002">
        <ele>34</ele>
        <time>2024-12-22T17:24:49Z</time>
      </trkpt>
      <trkpt lat="47.40611" lon="-1.35069">
        <ele>33</ele>
        <time>2024-12-22T17:26:08Z</time>
      </trkpt>
      <trkpt lat="47.4062" lon="-1.35078">
        <ele>33</ele>
        <time>2024-12-22T17:26:22Z</time>
      </trkpt>
      <trkpt lat="47.40631" lon="-1.35078">
        <ele>33</ele>
        <time>2024-12-22T17:26:37Z</time>
      </trkpt>
      <trkpt lat="47.40653" lon="-1.3507">
        <ele>32</ele>
        <time>2024-12-22T17:27:07Z</time>
      </trkpt>
      <trkpt lat="47.40737" lon="-1.35006">
        <ele>29</ele>
        <time>2024-12-22T17:29:13Z</time>
      </trkpt>
      <trkpt lat="47.40774" lon="-1.34969">
        <ele>30</ele>
        <time>2024-12-22T17:30:13Z</time>
      </trkpt>
      <trkpt lat="47.40919" lon="-1.34849">
        <ele>35</ele>
        <time>2024-12-22T17:33:55Z</time>
      </trkpt>
      <trkpt lat="47.40953" lon="-1.34825">
        <ele>36</ele>
        <time>2024-12-22T17:34:45Z</time>
      </trkpt>
      <trkpt lat="47.40964" lon="-1.34828">
        <ele>37</ele>
        <time>2024-12-22T17:35:00Z</time>
      </trkpt>
      <trkpt lat="47.40979" lon="-1.34851">
        <ele>37</ele>
        <time>2024-12-22T17:35:29Z</time>
      </trkpt>
      <trkpt lat="47.4111" lon="-1.35136">
        <ele>40</ele>
        <time>2024-12-22T17:40:40Z</time>
      </trkpt>
      <trkpt lat="47.4112" lon="-1.35149">
        <ele>40</ele>
        <time>2024-12-22T17:40:58Z</time>
      </trkpt>
      <trkpt lat="47.4113" lon="-1.35148">
        <ele>40</ele>
        <time>2024-12-22T17:41:11Z</time>
      </trkpt>
      <trkpt lat="47.4116" lon="-1.35119">
        <ele>40</ele>
        <time>2024-12-22T17:41:59Z</time>
      </trkpt>
      <trkpt lat="47.41205" lon="-1.35054">
        <ele>40</ele>
        <time>2024-12-22T17:43:23Z</time>
      </trkpt>
      <trkpt lat="47.41225" lon="-1.35006">
        <ele>38</ele>
        <time>2024-12-22T17:44:14Z</time>
      </trkpt>
      <trkpt lat="47.41256" lon="-1.34909">
        <ele>37</ele>
        <time>2024-12-22T17:45:51Z</time>
      </trkpt>
      <trkpt lat="47.41288" lon="-1.34854">
        <ele>37</ele>
        <time>2024-12-22T17:46:56Z</time>
      </trkpt>
      <trkpt lat="47.41299" lon="-1.34845">
        <ele>37</ele>
        <time>2024-12-22T17:47:13Z</time>
      </trkpt>
      <trkpt lat="47.41309" lon="-1.34845">
        <ele>37</ele>
        <time>2024-12-22T17:47:26Z</time>
      </trkpt>
      <trkpt lat="47.41327" lon="-1.3486">
        <ele>37</ele>
        <time>2024-12-22T17:47:54Z</time>
      </trkpt>
      <trkpt lat="47.4136" lon="-1.34906">
        <ele>36</ele>
        <time>2024-12-22T17:48:54Z</time>
      </trkpt>
      <trkpt lat="47.41583" lon="-1.35228">
        <ele>38</ele>
        <time>2024-12-22T17:55:50Z</time>
      </trkpt>
      <trkpt lat="47.41633" lon="-1.35309">
        <ele>39</ele>
        <time>2024-12-22T17:57:29Z</time>
      </trkpt>
      <trkpt lat="47.41631" lon="-1.3532">
        <ele>39</ele>
        <time>2024-12-22T17:57:40Z</time>
      </trkpt>
      <trkpt lat="47.41617" lon="-1.35338">
        <ele>40</ele>
        <time>2024-12-22T17:58:04Z</time>
      </trkpt>
      <trkpt lat="47.41518" lon="-1.3545">
        <ele>39</ele>
        <time>2024-12-22T18:00:51Z</time>
      </trkpt>
      <trkpt lat="47.4146" lon="-1.35537">
        <ele>39</ele>
        <time>2024-12-22T18:02:41Z</time>
      </trkpt>
      <trkpt lat="47.41374" lon="-1.35698">
        <ele>42</ele>
        <time>2024-12-22T18:05:46Z</time>
      </trkpt>
      <trkpt lat="47.4128" lon="-1.3589">
        <ele>41</ele>
        <time>2024-12-22T18:09:20Z</time>
      </trkpt>
      <trkpt lat="47.41233" lon="-1.35975">
        <ele>41</ele>
        <time>2024-12-22T18:10:59Z</time>
      </trkpt>
      <trkpt lat="47.40967" lon="-1.36502">
        <ele>44</ele>
        <time>2024-12-22T18:20:53Z</time>
      </trkpt>
      <trkpt lat="47.4084" lon="-1.36741">
        <ele>41</ele>
        <time>2024-12-22T18:25:28Z</time>
      </trkpt>
      <trkpt lat="47.40836" lon="-1.36755">
        <ele>41</ele>
        <time>2024-12-22T18:25:41Z</time>
      </trkpt>
      <trkpt lat="47.4084" lon="-1.36764">
        <ele>41</ele>
        <time>2024-12-22T18:25:51Z</time>
      </trkpt>
      <trkpt lat="47.40857" lon="-1.36767">
        <ele>42</ele>
        <time>2024-12-22T18:26:14Z</time>
      </trkpt>
      <trkpt lat="47.40866" lon="-1.36776">
        <ele>42</ele>
        <time>2024-12-22T18:26:28Z</time>
      </trkpt>
      <trkpt lat="47.40869" lon="-1.36794">
        <ele>42</ele>
        <time>2024-12-22T18:26:45Z</time>
      </trkpt>
      <trkpt lat="47.40857" lon="-1.36974">
        <ele>42</ele>
        <time>2024-12-22T18:29:28Z</time>
      </trkpt>
      <trkpt lat="47.40907" lon="-1.37208">
        <ele>42</ele>
        <time>2024-12-22T18:33:10Z</time>
      </trkpt>
      <trkpt lat="47.40926" lon="-1.37257">
        <ele>41</ele>
        <time>2024-12-22T18:34:01Z</time>
      </trkpt>
      <trkpt lat="47.41038" lon="-1.37441">
        <ele>38</ele>
        <time>2024-12-22T18:37:45Z</time>
      </trkpt>
      <trkpt lat="47.41038" lon="-1.37456">
        <ele>38</ele>
        <time>2024-12-22T18:37:58Z</time>
      </trkpt>
      <trkpt lat="47.41031" lon="-1.37463">
        <ele>39</ele>
        <time>2024-12-22T18:38:09Z</time>
      </trkpt>
      <trkpt lat="47.40988" lon="-1.37481">
        <ele>40</ele>
        <time>2024-12-22T18:39:09Z</time>
      </trkpt>
    </trkseg>
  </trk>
</gpx>